Thursday, November 23, 2017, 7:28 AM GMT
Back to Local

CYTR, Trenton, Ont.

Location: , , Canada Lat: 44.117
Local Time: 7:28 AM GMT ( 7:28 GMT) Lon: -77.533
Time Zone: GMT Elev: 278 ft

Show me the last for .
Show Coded

Time T Td Feel RH Dir Speed Gust Alt SLP Vis Weather Sky Remarks
2017-11-23 07:00 19 16 - 85 - Calm - 30.17 30.18 15 CLR None
2017-11-23 06:00 19 16 14 85 300° 3 - 30.17 30.19 15 FEW200 None
2017-11-23 05:00 21 16 16 79 320° 3 - 30.18 30.20 15 CLR None
2017-11-23 04:00 19 16 14 85 280° 3 - 30.20 30.21 15 CLR None
2017-11-23 03:00 21 16 16 79 290° 3 - 30.20 30.21 15 FEW027 None
2017-11-23 02:00 21 16 16 79 280° 3 - 30.20 30.22 15 FEW027 None
2017-11-23 01:00 23 16 16 73 300° 6 - 30.20 30.21 15 FEW027 None
2017-11-23 00:00 25 16 19 68 320° 5 - 30.20 30.21 15 FEW027 None
2017-11-22 23:00 27 16 16 63 300° 12 - 30.20 30.21 15 OVC025 None
2017-11-22 22:00 28 19 20 68 300° 9 - 30.17 30.19 15 BKN025 None
2017-11-22 21:00 30 19 19 63 290° 16 - 30.15 30.16 15 SCT026 None
2017-11-22 20:00 32 23 20 68 310° 13 21 30.12 30.13 15 SCT024 None
2017-11-22 19:00 34 25 23 69 320° 18 - 30.09 30.10 15 FEW018 BKN040 BKN092 None
2017-11-22 18:12 34 27 24 74 320° 16 - 30.08 30.09 15 SCT019 BKN034 BKN092 None
2017-11-22 18:00 34 27 24 74 310° 14 - 30.08 30.09 15 -SHRA BKN019 BKN041 None
2017-11-22 17:08 34 28 23 80 280° 17 - 30.08 30.09 15 -SHRA BKN019 OVC038 None
2017-11-22 17:00 34 28 24 80 290° 16 - 30.08 30.09 15 -SHGS BKN019 OVC038 None
2017-11-22 16:07 36 28 27 74 320° 14 - 30.08 30.09 15 -SHGS BKN019 OVC036 None
2017-11-22 16:00 36 30 29 80 310° 9 - 30.08 30.09 15 -SHSN BKN019 OVC036 None
2017-11-22 15:45 36 30 28 80 290° 10 - 30.08 30.09 15 -SHSN BKN019 OVC036 None
2017-11-22 15:00 36 32 29 86 300° 9 - 30.07 30.08 15 FEW027 OVC044 None
2017-11-22 14:00 36 32 28 86 290° 10 - 30.05 30.07 15 FEW028 OVC035 None
2017-11-22 13:00 36 30 29 80 280° 9 - 30.03 30.04 15 OVC038 None
2017-11-22 12:00 36 32 32 86 250° 5 - 30.01 30.02 15 OVC036 None
2017-11-22 11:00 36 34 32 93 250° 5 - 29.99 29.99 15 OVC032 None
2017-11-22 10:00 36 34 33 93 270° 3 - 29.96 29.97 15 OVC032 None
2017-11-22 09:00 36 36 - 100 250° 2 - 29.93 29.94 15 SCT016 OVC042 None
2017-11-22 08:00 36 36 32 100 320° 5 - 29.92 29.93 9 -DZ SCT009 BKN018 OVC042 None

Support USWX by starting your Amazon purchase here.